Cape Henlopen — WM5958 — position and weather

sailwx.info

Track history (hours):
 
Tides and Currents Weather Stations Pressure Air Temp Water Temp Dewpoint Dewpoint Depression Visibility Wind Speed Wind Dir Waves Ship Positions

Cape Henlopen

Owner: CROSS SOUND FERRY SERV INC, NEW LONDON, CT. More information available from US FCC via Universal Licensing System and Coast Guard Vessel Documentation Center.

Last reported at 2018-Apr-21 21:00 UTC. Time now 2018-Apr-21 21:10 UTC.
Position N 41°17' W 072°06'.

Length 94 m; draft 2.7 m.

Type: Passenger vessel. MMSI: 367354360.

Date/timePositionNaut miles runAvg speedWind from/ knotsBaromVisibWave heightAir tempDewpointWater temp
2018-Apr-21 21:00N 41°17' W 072°06'612.7
2018-Apr-21 20:30N 41°12' W 072°11'4 7.8
2018-Apr-21 19:59N 41°09' W 072°14'0 0.0
2018-Apr-21 19:28N 41°09' W 072°14'3 6.2
2018-Apr-21 19:00N 41°12' W 072°13'5 2.2
2018-Apr-21 16:49N 41°15' W 072°08'411.1
2018-Apr-21 16:30N 41°13' W 072°11'4 3.1
2018-Apr-21 15:20N 41°09' W 072°14'3 9.9
2018-Apr-21 15:00N 41°12' W 072°12'7 3.2
2018-Apr-21 12:57N 41°17' W 072°06'612.6
2018-Apr-21 12:30N 41°13' W 072°11'3 0.3
2018-Apr-21 01:17N 41°10' W 072°13'410.6
2018-Apr-21 00:54N 41°13' W 072°11'6 3.6
2018-Apr-20 23:08N 41°18' W 072°05'211.4
2018-Apr-20 22:59N 41°17' W 072°06'613.2
2018-Apr-20 22:30N 41°12' W 072°12'3 2.3
2018-Apr-20 21:21N 41°10' W 072°13'4 9.6
2018-Apr-20 20:55N 41°13' W 072°11'5 2.6
2018-Apr-20 18:58N 41°17' W 072°06'611.6
2018-Apr-20 18:28N 41°12' W 072°11'4 2.9
2018-Apr-20 17:14N 41°09' W 072°13'310.2
2018-Apr-20 16:58N 41°12' W 072°13'7 3.6
2018-Apr-20 15:03N 41°17' W 072°06'110.7
2018-Apr-20 15:00N 41°16' W 072°06'611.0
2018-Apr-20 14:29N 41°12' W 072°11'4 3.6
2018-Apr-20 13:28N 41°09' W 072°14'4 8.6
2018-Apr-20 12:59N 41°13' W 072°12'7 0.6
2018-Apr-20 01:07N 41°18' W 072°05'211.0
2018-Apr-20 00:58N 41°17' W 072°06'611.9
2018-Apr-20 00:30N 41°13' W 072°11'4 5.1
2018-Apr-19 23:41N 41°09' W 072°14'1 2.9
2018-Apr-19 23:17N 41°10' W 072°13'2 9.1
2018-Apr-19 23:00N 41°12' W 072°12'7 3.2
2018-Apr-19 20:57N 41°17' W 072°06'613.6
2018-Apr-19 20:30N 41°12' W 072°11'2 1.9
2018-Apr-19 19:12N 41°11' W 072°13'410.7
2018-Apr-19 18:51N 41°13' W 072°10'2 1.1
2018-Apr-19 16:49N 41°15' W 072°08'310.4
2018-Apr-19 16:29N 41°12' W 072°11'3 2.6
2018-Apr-19 15:11N 41°09' W 072°13'2 8.7
2018-Apr-19 15:00N 41°11' W 072°14'714.0
2018-Apr-19 14:28N 41°16' W 072°07'1 1.1
2018-Apr-19 13:06N 41°17' W 072°06'210.8
2018-Apr-19 12:53N 41°15' W 072°07'411.6
2018-Apr-19 12:30N 41°12' W 072°12'4 7.5
2018-Apr-19 12:01N 41°09' W 072°14'0 0.0
2018-Apr-19 11:31N 41°09' W 072°14'0 0.0
2018-Apr-19 11:00N 41°09' W 072°14'0 0.0
2018-Apr-19 01:27N 41°09' W 072°14'2 5.4
2018-Apr-19 01:01N 41°11' W 072°13'612.8
2018-Apr-19 00:31N 41°16' W 072°07'3 1.8
2018-Apr-18 23:04N 41°18' W 072°05'111.8
2018-Apr-18 23:00N 41°17' W 072°05'613.1
2018-Apr-18 22:30N 41°13' W 072°11'4 8.3
2018-Apr-18 22:00N 41°09' W 072°14'1 1.4
2018-Apr-18 21:27N 41°09' W 072°13'4 8.4
2018-Apr-18 21:00N 41°13' W 072°11'5 9.8
2018-Apr-18 20:29N 41°16' W 072°06'0 0.2
2018-Apr-18 19:01N 41°17' W 072°06'013.0
2018-Apr-18 19:00N 41°16' W 072°07'613.1
2018-Apr-18 18:30N 41°12' W 072°13'2 1.9
2018-Apr-18 17:19N 41°10' W 072°13'4 9.2
2018-Apr-18 16:53N 41°13' W 072°10'3 1.3
2018-Apr-18 14:54N 41°15' W 072°08'410.8
2018-Apr-18 14:30N 41°12' W 072°12'3 5.4
2018-Apr-18 13:53N 41°09' W 072°14'1 1.1
2018-Apr-18 13:23N 41°09' W 072°14'3 8.6
2018-Apr-18 13:00N 41°12' W 072°12'7 0.5
2018-Apr-17 23:05N 41°17' W 072°05'1 9.7
2018-Apr-17 22:59N 41°16' W 072°06'2 1.7
2018-Apr-17 21:42N 41°18' W 072°05'1 3.8
2018-Apr-17 21:27N 41°17' W 072°05'1 0.0
2018-Apr-17 00:06N 41°17' W 072°06'110.5
2018-Apr-16 23:59N 41°16' W 072°07'510.4
2018-Apr-16 23:30N 41°13' W 072°13'4 6.9
2018-Apr-16 22:54N 41°09' W 072°14'1 2.7
2018-Apr-16 22:22N 41°11' W 072°14'410.4
2018-Apr-16 22:00N 41°13' W 072°10'5 0.2
2018-Apr-16 03:06N 41°17' W 072°06'111.2
2018-Apr-16 03:00N 41°16' W 072°07'5 9.7
2018-Apr-16 02:30N 41°13' W 072°12'4 8.1
2018-Apr-16 02:00N 41°09' W 072°14'2 2.5
2018-Apr-16 01:21N 41°11' W 072°14'513.5
2018-Apr-16 01:00N 41°13' W 072°09'5 3.3
2018-Apr-15 23:23N 41°18' W 072°05'3 8.6
2018-Apr-15 23:00N 41°16' W 072°08'510.1
2018-Apr-15 22:30N 41°12' W 072°13'3 3.0
2018-Apr-15 21:33N 41°09' W 072°14'1 7.7
2018-Apr-15 21:22N 41°11' W 072°14'411.2
2018-Apr-15 21:00N 41°13' W 072°10'5 2.5
2018-Apr-15 19:09N 41°17' W 072°06'211.8
2018-Apr-15 18:58N 41°15' W 072°08'613.3
2018-Apr-15 18:30N 41°11' W 072°13'1 1.0
2018-Apr-15 17:24N 41°10' W 072°13'4 9.2
2018-Apr-15 16:58N 41°13' W 072°11'6 3.8
2018-Apr-15 15:17N 41°18' W 072°05'311.4
2018-Apr-15 15:00N 41°16' W 072°08'510.5
2018-Apr-15 14:29N 41°12' W 072°13'2 1.9
2018-Apr-15 13:21N 41°09' W 072°13'510.2
2018-Apr-15 12:51N 41°13' W 072°09'411.1
2018-Apr-15 12:29N 41°16' W 072°06'1 0.1
2018-Apr-15 01:12N 41°17' W 072°07'210.6
2018-Apr-15 01:00N 41°16' W 072°09'5 9.0
2018-Apr-15 00:30N 41°12' W 072°13'3 2.6
2018-Apr-14 23:19N 41°09' W 072°14'511.1
2018-Apr-14 22:54N 41°13' W 072°10'5 2.7
2018-Apr-14 21:03N 41°17' W 072°06'011.6
2018-Apr-14 21:00N 41°16' W 072°06'611.9
2018-Apr-14 20:30N 41°12' W 072°12'3 2.4
2018-Apr-14 19:21N 41°10' W 072°13'3 8.5
2018-Apr-14 18:58N 41°12' W 072°11'5 2.5
2018-Apr-14 16:56N 41°16' W 072°06'613.3
2018-Apr-14 16:30N 41°12' W 072°12'4 6.7
2018-Apr-14 15:58N 41°09' W 072°14'0 0.0
2018-Apr-14 15:30N 41°09' W 072°14'3 7.0
2018-Apr-14 15:00N 41°12' W 072°12'4 1.6
2018-Apr-14 12:47N 41°15' W 072°09'310.4
2018-Apr-14 12:29N 41°12' W 072°12'4 8.3
2018-Apr-14 12:00N 41°09' W 072°14'0 0.0
2018-Apr-14 11:29N 41°09' W 072°14'0 0.0
2018-Apr-14 01:42N 41°09' W 072°14'0 0.0
2018-Apr-14 01:30N 41°09' W 072°14'4 7.0
2018-Apr-14 01:00N 41°12' W 072°12'8 4.4
2018-Apr-13 23:11N 41°18' W 072°05'311.1
2018-Apr-13 22:54N 41°16' W 072°08'511.1
2018-Apr-13 22:29N 41°12' W 072°12'4 7.3
2018-Apr-13 22:00N 41°09' W 072°14'1 1.8
2018-Apr-13 21:11N 41°11' W 072°14'412.0
2018-Apr-13 20:53N 41°13' W 072°10'6 3.4
2018-Apr-13 19:04N 41°18' W 072°05'111.7
2018-Apr-13 18:56N 41°17' W 072°06'613.0
2018-Apr-13 18:30N 41°12' W 072°11'4 6.9
2018-Apr-13 17:55N 41°09' W 072°14'1 1.1
2018-Apr-13 17:24N 41°09' W 072°14'4 9.9
2018-Apr-13 16:57N 41°13' W 072°11'5 2.6
2018-Apr-13 15:00N 41°17' W 072°06'612.3
2018-Apr-13 14:30N 41°12' W 072°11'4 4.0
2018-Apr-13 13:32N 41°09' W 072°14'0 0.0
2018-Apr-13 13:27N 41°09' W 072°14'3 6.8
2018-Apr-13 13:01N 41°12' W 072°13'7 0.6
2018-Apr-13 01:05N 41°17' W 072°06'111.9
2018-Apr-13 00:58N 41°16' W 072°07'511.6
2018-Apr-13 00:31N 41°12' W 072°12'3 6.3
2018-Apr-13 00:00N 41°09' W 072°14'0 0.0
2018-Apr-12 23:30N 41°09' W 072°14'3 5.2
2018-Apr-12 23:00N 41°12' W 072°13'713.0
2018-Apr-12 22:29N 41°16' W 072°07'1 0.4
2018-Apr-12 20:59N 41°17' W 072°06'611.7
2018-Apr-12 20:29N 41°12' W 072°11'4 8.4
2018-Apr-12 20:00N 41°09' W 072°14'1 1.3
2018-Apr-12 19:23N 41°09' W 072°13'5 9.1
2018-Apr-12 18:53N 41°13' W 072°10'5 2.7
2018-Apr-12 16:59N 41°17' W 072°05'613.1
2018-Apr-12 16:30N 41°13' W 072°11'4 7.2
2018-Apr-12 15:55N 41°09' W 072°14'0 0.0
2018-Apr-12 15:29N 41°09' W 072°14'3 7.1
2018-Apr-12 15:00N 41°12' W 072°12'6 3.1
2018-Apr-12 13:01N 41°16' W 072°06'012.1
2018-Apr-12 12:59N 41°16' W 072°07'611.4
2018-Apr-12 12:30N 41°12' W 072°12'4 7.3
2018-Apr-12 12:00N 41°09' W 072°14'0 0.0
2018-Apr-12 11:30N 41°09' W 072°14'0 0.0
2018-Apr-12 11:00N 41°09' W 072°14'0 0.0
2018-Apr-12 01:28N 41°09' W 072°14'3 7.0
2018-Apr-12 01:00N 41°12' W 072°12'  
Track history (hours):
 
Tides and Currents Weather Stations Pressure Air Temp Water Temp Dewpoint Dewpoint Depression Visibility Wind Speed Wind Dir Waves Ship Positions

Cape Henlopen

Owner: CROSS SOUND FERRY SERV INC, NEW LONDON, CT. More information available from US FCC via Universal Licensing System and Coast Guard Vessel Documentation Center.

Last reported at 2018-Apr-21 21:00 UTC. Time now 2018-Apr-21 21:10 UTC.
Position N 41°17' W 072°06'.

Length 94 m; draft 2.7 m.

Type: Passenger vessel. MMSI: 367354360.

Date/timePositionNaut miles runAvg speedWind from/ knotsBaromVisibWave heightAir tempDewpointWater temp
2018-Apr-21 21:00N 41°17' W 072°06'612.7
2018-Apr-21 20:30N 41°12' W 072°11'4 7.8
2018-Apr-21 19:59N 41°09' W 072°14'0 0.0
2018-Apr-21 19:28N 41°09' W 072°14'3 6.2
2018-Apr-21 19:00N 41°12' W 072°13'5 2.2
2018-Apr-21 16:49N 41°15' W 072°08'411.1
2018-Apr-21 16:30N 41°13' W 072°11'4 3.1
2018-Apr-21 15:20N 41°09' W 072°14'3 9.9
2018-Apr-21 15:00N 41°12' W 072°12'7 3.2
2018-Apr-21 12:57N 41°17' W 072°06'612.6
2018-Apr-21 12:30N 41°13' W 072°11'3 0.3
2018-Apr-21 01:17N 41°10' W 072°13'410.6
2018-Apr-21 00:54N 41°13' W 072°11'6 3.6
2018-Apr-20 23:08N 41°18' W 072°05'211.4
2018-Apr-20 22:59N 41°17' W 072°06'613.2
2018-Apr-20 22:30N 41°12' W 072°12'3 2.3
2018-Apr-20 21:21N 41°10' W 072°13'4 9.6
2018-Apr-20 20:55N 41°13' W 072°11'5 2.6
2018-Apr-20 18:58N 41°17' W 072°06'611.6
2018-Apr-20 18:28N 41°12' W 072°11'4 2.9
2018-Apr-20 17:14N 41°09' W 072°13'310.2
2018-Apr-20 16:58N 41°12' W 072°13'7 3.6
2018-Apr-20 15:03N 41°17' W 072°06'110.7
2018-Apr-20 15:00N 41°16' W 072°06'611.0
2018-Apr-20 14:29N 41°12' W 072°11'4 3.6
2018-Apr-20 13:28N 41°09' W 072°14'4 8.6
2018-Apr-20 12:59N 41°13' W 072°12'7 0.6
2018-Apr-20 01:07N 41°18' W 072°05'211.0
2018-Apr-20 00:58N 41°17' W 072°06'611.9
2018-Apr-20 00:30N 41°13' W 072°11'4 5.1
2018-Apr-19 23:41N 41°09' W 072°14'1 2.9
2018-Apr-19 23:17N 41°10' W 072°13'2 9.1
2018-Apr-19 23:00N 41°12' W 072°12'7 3.2
2018-Apr-19 20:57N 41°17' W 072°06'613.6
2018-Apr-19 20:30N 41°12' W 072°11'2 1.9
2018-Apr-19 19:12N 41°11' W 072°13'410.7
2018-Apr-19 18:51N 41°13' W 072°10'2 1.1
2018-Apr-19 16:49N 41°15' W 072°08'310.4
2018-Apr-19 16:29N 41°12' W 072°11'3 2.6
2018-Apr-19 15:11N 41°09' W 072°13'2 8.7
2018-Apr-19 15:00N 41°11' W 072°14'714.0
2018-Apr-19 14:28N 41°16' W 072°07'1 1.1
2018-Apr-19 13:06N 41°17' W 072°06'210.8
2018-Apr-19 12:53N 41°15' W 072°07'411.6
2018-Apr-19 12:30N 41°12' W 072°12'4 7.5
2018-Apr-19 12:01N 41°09' W 072°14'0 0.0
2018-Apr-19 11:31N 41°09' W 072°14'0 0.0
2018-Apr-19 11:00N 41°09' W 072°14'0 0.0
2018-Apr-19 01:27N 41°09' W 072°14'2 5.4
2018-Apr-19 01:01N 41°11' W 072°13'612.8
2018-Apr-19 00:31N 41°16' W 072°07'3 1.8
2018-Apr-18 23:04N 41°18' W 072°05'111.8
2018-Apr-18 23:00N 41°17' W 072°05'613.1
2018-Apr-18 22:30N 41°13' W 072°11'4 8.3
2018-Apr-18 22:00N 41°09' W 072°14'1 1.4
2018-Apr-18 21:27N 41°09' W 072°13'4 8.4
2018-Apr-18 21:00N 41°13' W 072°11'5 9.8
2018-Apr-18 20:29N 41°16' W 072°06'0 0.2
2018-Apr-18 19:01N 41°17' W 072°06'013.0
2018-Apr-18 19:00N 41°16' W 072°07'613.1
2018-Apr-18 18:30N 41°12' W 072°13'2 1.9
2018-Apr-18 17:19N 41°10' W 072°13'4 9.2
2018-Apr-18 16:53N 41°13' W 072°10'3 1.3
2018-Apr-18 14:54N 41°15' W 072°08'410.8
2018-Apr-18 14:30N 41°12' W 072°12'3 5.4
2018-Apr-18 13:53N 41°09' W 072°14'1 1.1
2018-Apr-18 13:23N 41°09' W 072°14'3 8.6
2018-Apr-18 13:00N 41°12' W 072°12'7 0.5
2018-Apr-17 23:05N 41°17' W 072°05'1 9.7
2018-Apr-17 22:59N 41°16' W 072°06'2 1.7
2018-Apr-17 21:42N 41°18' W 072°05'1 3.8
2018-Apr-17 21:27N 41°17' W 072°05'1 0.0
2018-Apr-17 00:06N 41°17' W 072°06'110.5
2018-Apr-16 23:59N 41°16' W 072°07'510.4
2018-Apr-16 23:30N 41°13' W 072°13'4 6.9
2018-Apr-16 22:54N 41°09' W 072°14'1 2.7
2018-Apr-16 22:22N 41°11' W 072°14'410.4
2018-Apr-16 22:00N 41°13' W 072°10'5 0.2
2018-Apr-16 03:06N 41°17' W 072°06'111.2
2018-Apr-16 03:00N 41°16' W 072°07'5 9.7
2018-Apr-16 02:30N 41°13' W 072°12'4 8.1
2018-Apr-16 02:00N 41°09' W 072°14'2 2.5
2018-Apr-16 01:21N 41°11' W 072°14'513.5
2018-Apr-16 01:00N 41°13' W 072°09'5 3.3
2018-Apr-15 23:23N 41°18' W 072°05'3 8.6
2018-Apr-15 23:00N 41°16' W 072°08'510.1
2018-Apr-15 22:30N 41°12' W 072°13'3 3.0
2018-Apr-15 21:33N 41°09' W 072°14'1 7.7
2018-Apr-15 21:22N 41°11' W 072°14'411.2
2018-Apr-15 21:00N 41°13' W 072°10'5 2.5
2018-Apr-15 19:09N 41°17' W 072°06'211.8
2018-Apr-15 18:58N 41°15' W 072°08'613.3
2018-Apr-15 18:30N 41°11' W 072°13'1 1.0
2018-Apr-15 17:24N 41°10' W 072°13'4 9.2
2018-Apr-15 16:58N 41°13' W 072°11'6 3.8
2018-Apr-15 15:17N 41°18' W 072°05'311.4
2018-Apr-15 15:00N 41°16' W 072°08'510.5
2018-Apr-15 14:29N 41°12' W 072°13'2 1.9
2018-Apr-15 13:21N 41°09' W 072°13'510.2
2018-Apr-15 12:51N 41°13' W 072°09'411.1
2018-Apr-15 12:29N 41°16' W 072°06'1 0.1
2018-Apr-15 01:12N 41°17' W 072°07'210.6
2018-Apr-15 01:00N 41°16' W 072°09'5 9.0
2018-Apr-15 00:30N 41°12' W 072°13'3 2.6
2018-Apr-14 23:19N 41°09' W 072°14'511.1
2018-Apr-14 22:54N 41°13' W 072°10'5 2.7
2018-Apr-14 21:03N 41°17' W 072°06'011.6
2018-Apr-14 21:00N 41°16' W 072°06'611.9
2018-Apr-14 20:30N 41°12' W 072°12'3 2.4
2018-Apr-14 19:21N 41°10' W 072°13'3 8.5
2018-Apr-14 18:58N 41°12' W 072°11'5 2.5
2018-Apr-14 16:56N 41°16' W 072°06'613.3
2018-Apr-14 16:30N 41°12' W 072°12'4 6.7
2018-Apr-14 15:58N 41°09' W 072°14'0 0.0
2018-Apr-14 15:30N 41°09' W 072°14'3 7.0
2018-Apr-14 15:00N 41°12' W 072°12'4 1.6
2018-Apr-14 12:47N 41°15' W 072°09'310.4
2018-Apr-14 12:29N 41°12' W 072°12'4 8.3
2018-Apr-14 12:00N 41°09' W 072°14'0 0.0
2018-Apr-14 11:29N 41°09' W 072°14'0 0.0
2018-Apr-14 01:42N 41°09' W 072°14'0 0.0
2018-Apr-14 01:30N 41°09' W 072°14'4 7.0
2018-Apr-14 01:00N 41°12' W 072°12'8 4.4
2018-Apr-13 23:11N 41°18' W 072°05'311.1
2018-Apr-13 22:54N 41°16' W 072°08'511.1
2018-Apr-13 22:29N 41°12' W 072°12'4 7.3
2018-Apr-13 22:00N 41°09' W 072°14'1 1.8
2018-Apr-13 21:11N 41°11' W 072°14'412.0
2018-Apr-13 20:53N 41°13' W 072°10'6 3.4
2018-Apr-13 19:04N 41°18' W 072°05'111.7
2018-Apr-13 18:56N 41°17' W 072°06'613.0
2018-Apr-13 18:30N 41°12' W 072°11'4 6.9
2018-Apr-13 17:55N 41°09' W 072°14'1 1.1
2018-Apr-13 17:24N 41°09' W 072°14'4 9.9
2018-Apr-13 16:57N 41°13' W 072°11'5 2.6
2018-Apr-13 15:00N 41°17' W 072°06'612.3
2018-Apr-13 14:30N 41°12' W 072°11'4 4.0
2018-Apr-13 13:32N 41°09' W 072°14'0 0.0
2018-Apr-13 13:27N 41°09' W 072°14'3 6.8
2018-Apr-13 13:01N 41°12' W 072°13'7 0.6
2018-Apr-13 01:05N 41°17' W 072°06'111.9
2018-Apr-13 00:58N 41°16' W 072°07'511.6
2018-Apr-13 00:31N 41°12' W 072°12'3 6.3
2018-Apr-13 00:00N 41°09' W 072°14'0 0.0
2018-Apr-12 23:30N 41°09' W 072°14'3 5.2
2018-Apr-12 23:00N 41°12' W 072°13'713.0
2018-Apr-12 22:29N 41°16' W 072°07'1 0.4
2018-Apr-12 20:59N 41°17' W 072°06'611.7
2018-Apr-12 20:29N 41°12' W 072°11'4 8.4
2018-Apr-12 20:00N 41°09' W 072°14'1 1.3
2018-Apr-12 19:23N 41°09' W 072°13'5 9.1
2018-Apr-12 18:53N 41°13' W 072°10'5 2.7
2018-Apr-12 16:59N 41°17' W 072°05'613.1
2018-Apr-12 16:30N 41°13' W 072°11'4 7.2
2018-Apr-12 15:55N 41°09' W 072°14'0 0.0
2018-Apr-12 15:29N 41°09' W 072°14'3 7.1
2018-Apr-12 15:00N 41°12' W 072°12'6 3.1
2018-Apr-12 13:01N 41°16' W 072°06'012.1
2018-Apr-12 12:59N 41°16' W 072°07'611.4
2018-Apr-12 12:30N 41°12' W 072°12'4 7.3
2018-Apr-12 12:00N 41°09' W 072°14'0 0.0
2018-Apr-12 11:30N 41°09' W 072°14'0 0.0
2018-Apr-12 11:00N 41°09' W 072°14'0 0.0
2018-Apr-12 01:28N 41°09' W 072°14'3 7.0
2018-Apr-12 01:00N 41°12' W 072°12'  

Dump ship's entire track history